Time;durP1;ratioP1;P1;durP2;ratioP2;P2;SDS_P1;SDS_P2;PMS_P1;PMS_P2;Temp;Humidity;BMP_temperature;BMP_pressure;BME280_temperature;BME280_humidity;BME280_pressure;Samples;Min_cycle;Max_cycle;Signal;HPM_P1;HPM_P2
2023/08/15 00:01:20;;;;;;;12.98;12.32;;;22.90;99.90;;;;;;5051213;28;20302;-67
2023/08/15 00:03:47;;;;;;;16.50;15.80;;;22.80;99.90;;;;;;5053618;28;20199;-66
2023/08/15 00:06:14;;;;;;;13.02;12.52;;;22.80;99.90;;;;;;5053925;28;20666;-66
2023/08/15 00:08:40;;;;;;;13.90;13.40;;;22.70;99.90;;;;;;5053503;28;20230;-65
2023/08/15 00:11:07;;;;;;;19.13;18.42;;;22.70;99.90;;;;;;5053352;28;20220;-65
2023/08/15 00:13:36;;;;;;;14.05;13.52;;;22.70;99.90;;;;;;5055024;28;20247;-65
2023/08/15 00:16:02;;;;;;;15.63;14.98;;;22.60;99.90;;;;;;5053513;28;20246;-65
2023/08/15 00:18:29;;;;;;;12.70;12.25;;;22.50;99.90;;;;;;5053196;28;20594;-65
2023/08/15 00:20:56;;;;;;;15.02;14.48;;;22.50;99.90;;;;;;5058770;28;20250;-65
2023/08/15 00:23:23;;;;;;;12.88;12.38;;;22.50;99.90;;;;;;5057819;28;20210;-66
2023/08/15 00:25:50;;;;;;;11.77;11.38;;;22.50;99.90;;;;;;5053619;28;20215;-66
2023/08/15 00:28:17;;;;;;;14.40;13.90;;;22.60;99.90;;;;;;5052477;28;20228;-65
2023/08/15 00:30:45;;;;;;;15.40;14.80;;;22.60;99.90;;;;;;5061040;28;20224;-66
2023/08/15 00:33:11;;;;;;;33.72;31.98;;;22.60;99.90;;;;;;5056233;28;20296;-68
2023/08/15 00:35:38;;;;;;;18.88;18.08;;;22.60;99.90;;;;;;5053115;28;20703;-66
2023/08/15 00:38:05;;;;;;;17.02;16.40;;;22.70;99.90;;;;;;5053122;28;20224;-65
2023/08/15 00:40:32;;;;;;;12.80;12.35;;;22.60;99.90;;;;;;5052312;28;20200;-66
2023/08/15 00:42:59;;;;;;;12.98;12.48;;;22.60;99.90;;;;;;5052857;28;20214;-66
2023/08/15 00:45:26;;;;;;;13.05;12.55;;;22.60;99.90;;;;;;5052609;28;20673;-66
2023/08/15 00:47:54;;;;;;;13.02;12.52;;;22.60;99.90;;;;;;5052851;28;20228;-68
2023/08/15 00:50:21;;;;;;;11.98;11.57;;;22.60;99.90;;;;;;5052180;28;20666;-65
2023/08/15 00:52:49;;;;;;;12.63;12.20;;;22.70;99.90;;;;;;5052842;28;20203;-65
2023/08/15 00:55:18;;;;;;;19.40;18.63;;;22.60;99.90;;;;;;5053071;28;20325;-66
2023/08/15 00:57:45;;;;;;;12.15;11.68;;;22.60;99.90;;;;;;5055408;28;20307;-66
2023/08/15 01:00:12;;;;;;;22.15;21.15;;;22.70;99.90;;;;;;5056260;28;20203;-65
2023/08/15 01:02:40;;;;;;;13.43;12.90;;;22.60;99.90;;;;;;5054413;28;20689;-64
2023/08/15 01:05:08;;;;;;;12.02;11.52;;;22.60;99.90;;;;;;5052980;28;20294;-65
2023/08/15 01:07:35;;;;;;;12.23;11.77;;;22.60;99.90;;;;;;5057454;28;20295;-65
2023/08/15 01:10:02;;;;;;;12.95;12.45;;;22.60;99.90;;;;;;5052285;28;20233;-65
2023/08/15 01:12:36;;;;;;;13.43;12.93;;;22.70;99.90;;;;;;5053392;28;20235;-67
2023/08/15 01:15:08;;;;;;;13.00;12.50;;;22.70;99.90;;;;;;5052790;28;20553;-65
2023/08/15 01:17:45;;;;;;;12.07;11.68;;;22.80;99.90;;;;;;5053667;28;20563;-67
2023/08/15 01:20:18;;;;;;;12.25;11.85;;;22.80;99.90;;;;;;5053911;28;20229;-66
2023/08/15 01:22:50;;;;;;;12.30;11.90;;;22.80;99.90;;;;;;5051915;28;20909;-67
2023/08/15 01:25:18;;;;;;;12.43;11.93;;;22.80;99.90;;;;;;5053760;28;20218;-67
2023/08/15 01:27:45;;;;;;;12.52;12.05;;;22.90;99.90;;;;;;5052838;28;20211;-67
2023/08/15 01:30:14;;;;;;;12.05;11.63;;;22.80;99.90;;;;;;5050456;28;20336;-68
2023/08/15 01:32:48;;;;;;;12.13;11.73;;;22.80;99.90;;;;;;5050766;28;20228;-66
2023/08/15 01:35:19;;;;;;;13.47;12.97;;;22.80;99.90;;;;;;5046733;28;20218;-66
2023/08/15 01:37:54;;;;;;;12.65;12.15;;;22.70;99.90;;;;;;5050333;28;20215;-65
2023/08/15 01:40:24;;;;;;;12.17;11.70;;;22.70;99.90;;;;;;5049825;28;20214;-67
2023/08/15 01:42:55;;;;;;;15.13;14.52;;;22.60;99.90;;;;;;5049727;28;20206;-64
2023/08/15 01:45:25;;;;;;;13.38;12.88;;;22.60;99.90;;;;;;5051012;28;20216;-65
2023/08/15 01:47:52;;;;;;;73.40;68.15;;;22.60;99.90;;;;;;5050636;28;20228;-68
2023/08/15 01:50:19;;;;;;;12.98;12.52;;;22.60;99.90;;;;;;5050812;28;20214;-68
2023/08/15 01:52:46;;;;;;;12.68;12.18;;;22.60;99.90;;;;;;5052237;28;20357;-67
2023/08/15 01:55:13;;;;;;;13.95;13.45;;;22.50;99.90;;;;;;5050436;28;20215;-67
2023/08/15 01:57:41;;;;;;;12.75;12.25;;;22.50;99.90;;;;;;5050282;28;20577;-66
2023/08/15 02:00:09;;;;;;;12.23;11.73;;;22.50;99.90;;;;;;5049658;28;20208;-66
2023/08/15 02:02:35;;;;;;;14.27;13.73;;;22.50;99.90;;;;;;5059659;28;20200;-68
2023/08/15 02:05:02;;;;;;;16.70;16.02;;;22.50;99.90;;;;;;5051044;28;20204;-65
2023/08/15 02:07:29;;;;;;;12.85;12.38;;;22.50;99.90;;;;;;5049700;28;20662;-67
2023/08/15 02:09:56;;;;;;;12.05;11.65;;;22.50;99.90;;;;;;5052126;28;20210;-67
2023/08/15 02:12:23;;;;;;;11.75;11.25;;;22.50;99.90;;;;;;5061734;28;20219;-66
2023/08/15 02:14:51;;;;;;;11.82;11.43;;;22.60;99.90;;;;;;5050760;28;20674;-66
2023/08/15 02:17:18;;;;;;;12.27;11.77;;;22.60;99.90;;;;;;5050001;28;20207;-67
2023/08/15 02:19:45;;;;;;;11.07;10.67;;;22.60;99.90;;;;;;5049231;28;20601;-66
2023/08/15 02:22:11;;;;;;;12.20;11.77;;;22.60;99.90;;;;;;5049922;28;20222;-64
2023/08/15 02:24:38;;;;;;;13.07;12.60;;;22.60;99.90;;;;;;5049806;28;20204;-65
2023/08/15 02:27:05;;;;;;;12.80;12.30;;;22.60;99.90;;;;;;5049920;28;20214;-65
2023/08/15 02:29:32;;;;;;;11.80;11.40;;;22.60;99.90;;;;;;5097587;22;20226;-65
2023/08/15 02:32:00;;;;;;;11.82;11.43;;;22.70;99.90;;;;;;5088889;28;20244;-65
2023/08/15 02:34:27;;;;;;;13.02;12.52;;;22.70;99.90;;;;;;5088618;28;20206;-64
2023/08/15 02:36:53;;;;;;;12.15;11.75;;;22.60;99.90;;;;;;5088674;28;20212;-64
2023/08/15 02:39:20;;;;;;;12.75;12.25;;;22.60;99.90;;;;;;5087962;28;20241;-64
2023/08/15 02:41:47;;;;;;;12.73;12.23;;;22.60;99.90;;;;;;5089088;28;20309;-64
2023/08/15 02:44:14;;;;;;;13.02;12.52;;;22.50;99.90;;;;;;5088160;28;20212;-64
2023/08/15 02:46:40;;;;;;;14.10;13.57;;;22.50;99.90;;;;;;5090192;28;20217;-66
2023/08/15 02:49:09;;;;;;;12.40;11.95;;;22.40;99.90;;;;;;5088885;28;20242;-63
2023/08/15 02:51:36;;;;;;;12.10;11.70;;;22.40;99.90;;;;;;5089059;28;20699;-64
2023/08/15 02:54:03;;;;;;;12.93;12.45;;;22.40;99.90;;;;;;5089767;28;20275;-64
2023/08/15 02:56:30;;;;;;;11.35;10.95;;;22.40;99.90;;;;;;5089703;28;20294;-64
2023/08/15 02:58:57;;;;;;;11.90;11.40;;;22.40;99.90;;;;;;5088887;28;20232;-64
2023/08/15 03:01:23;;;;;;;11.60;11.20;;;22.40;99.90;;;;;;5087814;28;20216;-63
2023/08/15 03:03:50;;;;;;;12.40;11.98;;;22.40;99.90;;;;;;5088251;28;20694;-64
2023/08/15 03:06:18;;;;;;;11.70;11.20;;;22.40;99.90;;;;;;5088486;28;20212;-63
2023/08/15 03:08:47;;;;;;;12.25;11.80;;;22.30;99.90;;;;;;5088414;28;20218;-64
2023/08/15 03:11:14;;;;;;;13.60;13.10;;;22.30;99.90;;;;;;5087309;28;20234;-64
2023/08/15 03:13:40;;;;;;;11.17;10.77;;;22.20;99.90;;;;;;5088426;28;20561;-64
2023/08/15 03:16:07;;;;;;;13.50;13.05;;;22.20;99.90;;;;;;5088098;28;20284;-65
2023/08/15 03:18:34;;;;;;;12.10;11.60;;;22.20;99.90;;;;;;5088086;28;20230;-64
2023/08/15 03:21:03;;;;;;;13.68;13.15;;;22.20;99.90;;;;;;5087718;28;20209;-65
2023/08/15 03:23:31;;;;;;;13.55;12.85;;;22.20;99.90;;;;;;5088383;28;20207;-65
2023/08/15 03:25:59;;;;;;;12.52;12.07;;;22.10;99.90;;;;;;5088459;28;20209;-64
2023/08/15 03:28:26;;;;;;;12.63;12.13;;;22.10;99.90;;;;;;5087225;28;20236;-64
2023/08/15 03:30:53;;;;;;;12.88;12.43;;;22.20;99.90;;;;;;5088734;28;20206;-64
2023/08/15 03:33:20;;;;;;;11.55;11.15;;;22.10;99.90;;;;;;5088909;28;20438;-66
2023/08/15 03:35:48;;;;;;;11.63;11.23;;;22.10;99.90;;;;;;5089088;28;20238;-64
2023/08/15 03:38:16;;;;;;;12.83;12.37;;;22.20;99.90;;;;;;5089122;28;20236;-64
2023/08/15 03:40:45;;;;;;;12.43;11.93;;;22.20;99.90;;;;;;5088663;28;20202;-64
2023/08/15 03:43:12;;;;;;;11.83;11.40;;;22.20;99.90;;;;;;5089526;28;20262;-65
2023/08/15 03:45:39;;;;;;;11.98;11.57;;;22.20;99.90;;;;;;5089108;28;20203;-65
2023/08/15 03:48:07;;;;;;;12.40;11.93;;;22.30;99.90;;;;;;5089280;28;20545;-64
2023/08/15 03:50:35;;;;;;;13.93;13.43;;;22.30;99.90;;;;;;5088712;28;20234;-64
2023/08/15 03:53:02;;;;;;;12.10;11.63;;;22.20;99.90;;;;;;5088853;28;20684;-64
2023/08/15 03:55:29;;;;;;;15.00;14.47;;;22.10;99.90;;;;;;5089128;28;20207;-64
2023/08/15 03:57:58;;;;;;;12.40;11.97;;;22.10;99.90;;;;;;5089186;28;20296;-65
2023/08/15 04:00:25;;;;;;;15.77;15.15;;;22.00;99.90;;;;;;5087889;28;20209;-64
2023/08/15 04:02:52;;;;;;;16.70;16.10;;;22.00;99.90;;;;;;5091416;28;20226;-65
2023/08/15 04:05:19;;;;;;;15.68;15.10;;;22.00;99.90;;;;;;5092996;28;20213;-66
2023/08/15 04:07:46;;;;;;;17.65;17.05;;;21.90;99.90;;;;;;5092476;28;20329;-63
2023/08/15 04:10:13;;;;;;;17.67;17.00;;;21.80;99.90;;;;;;5091909;28;20198;-64
2023/08/15 04:12:40;;;;;;;18.47;17.80;;;21.80;99.90;;;;;;5090779;28;20222;-65
2023/08/15 04:15:09;;;;;;;21.00;20.23;;;21.80;99.90;;;;;;5091511;28;20216;-65
2023/08/15 04:17:35;;;;;;;19.58;18.88;;;21.80;99.90;;;;;;5091787;28;20480;-64
2023/08/15 04:20:04;;;;;;;57.47;53.70;;;21.70;99.90;;;;;;5090644;28;20219;-64
2023/08/15 04:22:31;;;;;;;22.17;21.37;;;21.70;99.90;;;;;;5091203;28;20206;-64
2023/08/15 04:24:58;;;;;;;19.98;19.10;;;21.60;99.90;;;;;;5091385;28;20239;-64
2023/08/15 04:27:25;;;;;;;22.67;21.87;;;21.60;99.90;;;;;;5091308;28;20213;-64
2023/08/15 04:29:55;;;;;;;23.13;22.20;;;21.60;99.90;;;;;;5090538;28;20613;-64
2023/08/15 04:32:23;;;;;;;22.47;21.67;;;21.50;99.90;;;;;;5091318;28;20379;-64
2023/08/15 04:34:50;;;;;;;21.45;20.65;;;21.50;99.90;;;;;;5090604;28;20715;-65
2023/08/15 04:37:17;;;;;;;22.07;21.20;;;21.40;99.90;;;;;;5091198;28;20584;-65
2023/08/15 04:39:44;;;;;;;22.10;21.30;;;21.50;99.90;;;;;;5089713;28;20226;-65
2023/08/15 04:42:10;;;;;;;20.93;20.13;;;21.40;99.90;;;;;;5090490;28;20202;-64
2023/08/15 04:44:37;;;;;;;14.10;13.63;;;21.40;99.90;;;;;;5091640;28;20203;-64
2023/08/15 04:47:04;;;;;;;15.07;14.50;;;21.50;99.90;;;;;;5092145;28;20213;-64
2023/08/15 04:49:33;;;;;;;19.80;19.10;;;21.50;99.90;;;;;;5091314;28;20234;-64
2023/08/15 04:52:00;;;;;;;17.33;16.73;;;21.60;99.90;;;;;;5092934;28;20223;-64
2023/08/15 04:54:27;;;;;;;17.87;17.23;;;21.60;99.90;;;;;;5102832;28;20213;-64
2023/08/15 04:56:54;;;;;;;18.25;17.58;;;21.70;99.90;;;;;;5098614;28;20206;-65
2023/08/15 04:59:21;;;;;;;18.10;17.33;;;21.70;99.90;;;;;;5093136;28;20692;-64
2023/08/15 05:01:47;;;;;;;14.93;14.40;;;21.80;99.90;;;;;;5091546;28;20207;-65
2023/08/15 05:04:14;;;;;;;18.50;17.80;;;21.80;99.90;;;;;;5090572;28;20214;-64
2023/08/15 05:06:42;;;;;;;15.67;15.10;;;21.80;99.90;;;;;;5091098;28;20633;-65
2023/08/15 05:09:09;;;;;;;14.20;13.70;;;21.80;99.90;;;;;;5089758;28;20223;-64
2023/08/15 05:11:36;;;;;;;14.80;14.27;;;21.80;99.90;;;;;;5090841;28;20194;-64
2023/08/15 05:14:03;;;;;;;14.02;13.57;;;21.80;99.90;;;;;;5091239;28;20252;-64
2023/08/15 05:16:30;;;;;;;14.65;14.10;;;21.80;99.90;;;;;;5091335;28;20202;-64
2023/08/15 05:18:57;;;;;;;20.50;19.70;;;21.80;99.90;;;;;;5090573;28;20262;-64
2023/08/15 05:21:24;;;;;;;19.65;18.95;;;21.80;99.90;;;;;;5089554;28;20798;-64
2023/08/15 05:23:52;;;;;;;23.25;22.23;;;21.90;99.90;;;;;;5090480;28;20214;-64
2023/08/15 05:26:19;;;;;;;14.50;13.90;;;21.90;99.90;;;;;;5089384;28;20206;-64
2023/08/15 05:28:46;;;;;;;12.90;12.40;;;22.10;99.90;;;;;;5091447;28;20241;-64
2023/08/15 05:31:14;;;;;;;12.57;12.07;;;22.20;99.90;;;;;;5090940;28;20207;-64
2023/08/15 05:33:41;;;;;;;12.05;11.57;;;22.30;99.90;;;;;;5091802;28;20218;-64
2023/08/15 05:36:08;;;;;;;12.18;11.77;;;22.40;99.90;;;;;;5091431;28;20229;-64
2023/08/15 05:38:36;;;;;;;12.27;11.77;;;22.50;99.90;;;;;;5092218;28;20320;-64
2023/08/15 05:41:04;;;;;;;11.85;11.45;;;22.60;99.90;;;;;;5090701;28;20214;-64
2023/08/15 05:43:31;;;;;;;12.63;12.13;;;22.70;99.90;;;;;;5091400;28;20214;-64
2023/08/15 05:45:58;;;;;;;12.00;11.50;;;22.70;99.90;;;;;;5091626;28;20213;-65
2023/08/15 05:48:24;;;;;;;13.18;12.68;;;22.60;99.90;;;;;;5090914;28;20222;-64
2023/08/15 05:50:51;;;;;;;13.32;12.82;;;22.60;99.90;;;;;;5089899;28;20294;-64
2023/08/15 05:53:18;;;;;;;12.68;12.15;;;22.50;99.90;;;;;;5090893;28;20400;-63
2023/08/15 05:55:46;;;;;;;12.30;11.80;;;22.50;99.90;;;;;;5091094;28;20676;-64
2023/08/15 05:58:14;;;;;;;12.18;11.68;;;22.50;99.90;;;;;;5091205;28;20218;-64
2023/08/15 06:00:42;;;;;;;11.90;11.50;;;22.50;99.90;;;;;;5088936;28;20199;-65
2023/08/15 06:03:08;;;;;;;29.50;27.97;;;22.50;99.90;;;;;;5089268;28;20638;-64
2023/08/15 06:05:35;;;;;;;12.97;12.47;;;22.60;99.90;;;;;;5089488;28;20689;-64
2023/08/15 06:08:02;;;;;;;13.90;13.30;;;22.60;99.90;;;;;;5090034;28;20203;-64
2023/08/15 06:10:29;;;;;;;11.93;11.52;;;22.60;99.90;;;;;;5089090;28;20247;-64
2023/08/15 06:12:56;;;;;;;12.95;12.35;;;22.80;99.90;;;;;;5089253;28;20253;-66
2023/08/15 06:15:24;;;;;;;11.90;11.50;;;22.90;99.90;;;;;;5089689;28;20203;-66
2023/08/15 06:17:51;;;;;;;12.60;12.10;;;23.00;99.90;;;;;;5089039;28;20206;-64
2023/08/15 06:20:18;;;;;;;12.68;12.27;;;23.20;99.90;;;;;;5089057;28;20213;-64
2023/08/15 06:22:45;;;;;;;13.00;12.55;;;23.40;99.90;;;;;;5089413;28;20195;-64
2023/08/15 06:25:12;;;;;;;13.95;13.32;;;23.60;99.90;;;;;;5089080;28;20213;-66
2023/08/15 06:27:38;;;;;;;12.05;11.55;;;23.70;99.90;;;;;;5089346;28;20202;-64
2023/08/15 06:30:06;;;;;;;11.97;11.57;;;23.70;99.90;;;;;;5087147;28;20237;-63
2023/08/15 06:32:35;;;;;;;13.13;12.63;;;23.70;99.90;;;;;;5089980;28;20326;-64
2023/08/15 06:35:03;;;;;;;13.05;12.45;;;23.60;99.90;;;;;;5090158;28;20210;-64
2023/08/15 06:37:29;;;;;;;12.73;12.23;;;23.60;99.90;;;;;;5090839;28;20236;-65
2023/08/15 06:39:56;;;;;;;12.68;12.18;;;23.60;99.90;;;;;;5089364;28;20601;-65
2023/08/15 06:42:23;;;;;;;13.07;12.57;;;23.60;99.90;;;;;;5089943;28;20212;-64
2023/08/15 06:44:50;;;;;;;13.20;12.70;;;23.60;99.90;;;;;;5088532;28;20209;-64
2023/08/15 06:47:17;;;;;;;13.95;13.30;;;23.60;99.90;;;;;;5088914;28;20628;-64
2023/08/15 06:49:45;;;;;;;13.20;12.70;;;23.60;99.90;;;;;;5088947;28;20222;-64
2023/08/15 06:52:12;;;;;;;13.15;12.65;;;23.60;99.90;;;;;;5089320;28;20225;-64
2023/08/15 06:54:39;;;;;;;13.57;13.07;;;23.60;99.90;;;;;;5089778;28;20214;-67
2023/08/15 06:57:07;;;;;;;12.32;11.88;;;23.60;99.90;;;;;;5096904;28;20217;-65
2023/08/15 06:59:35;;;;;;;12.45;11.95;;;23.60;99.90;;;;;;5088455;28;20234;-64
2023/08/15 07:02:02;;;;;;;12.48;11.98;;;23.60;99.90;;;;;;5094190;28;20210;-64
2023/08/15 07:04:29;;;;;;;11.90;11.50;;;23.60;99.90;;;;;;5090091;28;20453;-65
2023/08/15 07:06:58;;;;;;;12.68;12.18;;;23.60;99.90;;;;;;5088883;28;20656;-64
2023/08/15 07:09:28;;;;;;;12.43;11.93;;;23.60;99.90;;;;;;5094821;28;20234;-63
2023/08/15 07:11:55;;;;;;;12.75;12.25;;;23.70;99.90;;;;;;5089623;28;20207;-64
2023/08/15 07:14:22;;;;;;;12.27;11.83;;;23.70;99.90;;;;;;5090114;28;20222;-66
2023/08/15 07:16:49;;;;;;;12.75;12.35;;;23.70;99.90;;;;;;5089822;28;20210;-62
2023/08/15 07:19:16;;;;;;;15.02;14.48;;;23.80;99.90;;;;;;5089239;28;20231;-64
2023/08/15 07:21:44;;;;;;;14.57;14.07;;;23.90;99.90;;;;;;5090122;28;20885;-66
2023/08/15 07:24:12;;;;;;;14.23;13.73;;;23.90;99.90;;;;;;5089658;28;20209;-64
2023/08/15 07:26:39;;;;;;;16.40;15.70;;;24.00;99.90;;;;;;5089635;28;20213;-66
2023/08/15 07:29:06;;;;;;;17.70;17.00;;;24.10;99.90;;;;;;5088952;28;20245;-64
2023/08/15 07:31:33;;;;;;;16.00;15.40;;;24.20;99.90;;;;;;5090246;28;20202;-66
2023/08/15 07:34:00;;;;;;;16.67;16.08;;;24.40;99.90;;;;;;5089469;28;20692;-65
2023/08/15 07:36:27;;;;;;;16.88;16.17;;;24.50;99.90;;;;;;5090007;28;20206;-65
2023/08/15 07:38:54;;;;;;;17.48;16.88;;;24.80;99.90;;;;;;5093932;28;20677;-64
2023/08/15 07:41:22;;;;;;;15.25;14.65;;;25.10;99.90;;;;;;5092892;28;20622;-65
2023/08/15 07:43:49;;;;;;;14.20;13.60;;;25.40;99.90;;;;;;5093639;28;20202;-65
2023/08/15 07:46:15;;;;;;;12.48;12.00;;;25.50;99.90;;;;;;5093762;28;20202;-64
2023/08/15 07:48:43;;;;;;;18.23;17.52;;;25.70;99.90;;;;;;5097832;28;20229;-64
2023/08/15 07:51:10;;;;;;;14.38;13.77;;;25.90;99.90;;;;;;5096996;28;20209;-65
2023/08/15 07:53:37;;;;;;;14.02;13.52;;;26.00;99.90;;;;;;5098648;28;20247;-66
2023/08/15 07:56:04;;;;;;;13.57;13.07;;;26.10;99.90;;;;;;5099954;28;20210;-65
2023/08/15 07:58:35;;;;;;;14.63;14.13;;;26.00;99.90;;;;;;5094409;28;20237;-64
2023/08/15 08:01:02;;;;;;;14.73;14.13;;;26.00;99.90;;;;;;5093096;28;20202;-64
2023/08/15 08:03:29;;;;;;;14.25;13.75;;;25.80;99.90;;;;;;5093632;28;20203;-64
2023/08/15 08:05:56;;;;;;;14.15;13.65;;;25.70;99.90;;;;;;5096460;28;20206;-66
2023/08/15 08:08:22;;;;;;;13.80;13.30;;;25.70;99.90;;;;;;5093906;28;20225;-65
2023/08/15 08:10:49;;;;;;;14.50;13.90;;;25.70;99.90;;;;;;5093253;28;20576;-65
2023/08/15 08:13:17;;;;;;;15.77;15.18;;;25.60;99.90;;;;;;5093628;28;20218;-64
2023/08/15 08:15:45;;;;;;;16.10;15.50;;;25.60;99.90;;;;;;5093506;28;20257;-65
2023/08/15 08:18:12;;;;;;;15.15;14.65;;;25.90;99.90;;;;;;5093086;28;20222;-64
2023/08/15 08:20:40;;;;;;;18.02;17.35;;;26.30;99.90;;;;;;5092614;28;20213;-65
2023/08/15 08:23:08;;;;;;;17.08;16.48;;;26.60;99.90;;;;;;5093295;28;20298;-67
2023/08/15 08:25:35;;;;;;;24.38;23.45;;;26.90;99.90;;;;;;5093712;28;20625;-64
2023/08/15 08:28:02;;;;;;;21.17;20.38;;;27.20;99.90;;;;;;5093717;28;20297;-65
2023/08/15 08:30:29;;;;;;;19.67;18.98;;;27.20;99.90;;;;;;5091656;28;20672;-64
2023/08/15 08:32:57;;;;;;;18.52;17.83;;;27.10;99.90;;;;;;5092407;28;20550;-65
2023/08/15 08:35:24;;;;;;;19.17;18.48;;;26.90;99.90;;;;;;5092736;28;20217;-65
2023/08/15 08:37:51;;;;;;;19.27;18.58;;;26.80;99.90;;;;;;5092822;28;20606;-64
2023/08/15 08:40:18;;;;;;;16.73;16.13;;;26.70;99.90;;;;;;5092080;28;20210;-65
2023/08/15 08:42:46;;;;;;;18.10;17.42;;;26.70;99.90;;;;;;5093016;28;20210;-65
2023/08/15 08:45:13;;;;;;;16.30;15.70;;;26.70;99.90;;;;;;5093009;28;20293;-65
2023/08/15 08:47:42;;;;;;;19.35;18.65;;;26.70;99.90;;;;;;5092220;28;20576;-65
2023/08/15 08:50:11;;;;;;;18.67;17.98;;;26.80;99.90;;;;;;5091838;28;20574;-65
2023/08/15 08:52:40;;;;;;;18.55;17.88;;;26.90;99.90;;;;;;5092849;28;20206;-65
2023/08/15 08:55:08;;;;;;;17.20;16.60;;;27.00;99.90;;;;;;5092857;28;20226;-65
2023/08/15 08:57:37;;;;;;;15.95;15.35;;;27.00;99.90;;;;;;5092311;28;20208;-65
2023/08/15 09:00:09;;;;;;;16.77;16.17;;;27.00;99.90;;;;;;5092133;28;20234;-65
2023/08/15 09:02:36;;;;;;;18.58;17.88;;;27.10;99.90;;;;;;5092710;28;20333;-64
2023/08/15 09:05:03;;;;;;;16.67;16.08;;;27.10;99.90;;;;;;5092343;28;20198;-65
2023/08/15 09:07:33;;;;;;;17.98;17.38;;;27.10;99.90;;;;;;5092116;28;20206;-66
2023/08/15 09:09:59;;;;;;;17.05;16.45;;;27.20;99.90;;;;;;5091122;28;20670;-66
2023/08/15 09:12:34;;;;;;;16.33;15.73;;;27.40;99.90;;;;;;5091754;28;20205;-64
2023/08/15 09:15:00;;;;;;;13.07;12.60;;;27.50;99.90;;;;;;5091082;28;20222;-64
2023/08/15 09:17:27;;;;;;;11.18;10.77;;;27.50;99.90;;;;;;5090898;28;20668;-65
2023/08/15 09:19:54;;;;;;;10.85;10.45;;;27.60;99.90;;;;;;5090233;28;20237;-65
2023/08/15 09:22:22;;;;;;;10.90;10.50;;;27.70;99.90;;;;;;5091051;28;20626;-65
2023/08/15 09:24:50;;;;;;;11.63;11.23;;;27.80;99.90;;;;;;5090955;28;20564;-66
2023/08/15 09:27:18;;;;;;;10.40;10.00;;;27.80;99.90;;;;;;5090973;28;20639;-66
2023/08/15 09:29:45;;;;;;;12.38;11.90;;;27.80;99.90;;;;;;5090076;28;20237;-65
2023/08/15 09:32:12;;;;;;;12.30;11.90;;;27.80;99.90;;;;;;5091214;28;20237;-66
2023/08/15 09:34:39;;;;;;;12.00;11.60;;;27.90;99.90;;;;;;5093114;28;20222;-66
2023/08/15 09:37:06;;;;;;;12.63;12.18;;;27.80;99.90;;;;;;5099094;28;20423;-66
2023/08/15 09:39:33;;;;;;;10.80;10.40;;;27.90;99.90;;;;;;5094615;28;20734;-67
2023/08/15 09:42:02;;;;;;;12.10;11.70;;;28.00;99.90;;;;;;5090965;28;20221;-66
2023/08/15 09:44:34;;;;;;;12.30;11.90;;;28.00;99.90;;;;;;5090822;28;20294;-65
2023/08/15 09:47:02;;;;;;;12.07;11.65;;;28.00;99.90;;;;;;5090634;28;20221;-65
2023/08/15 09:49:29;;;;;;;12.30;11.90;;;28.00;99.90;;;;;;5089639;28;20313;-64
2023/08/15 09:51:59;;;;;;;14.93;14.43;;;28.00;99.90;;;;;;5090549;28;20559;-63
2023/08/15 09:54:27;;;;;;;13.60;13.00;;;27.90;99.90;;;;;;5090231;28;20241;-66
2023/08/15 09:56:54;;;;;;;14.18;13.68;;;27.90;99.90;;;;;;5090151;28;20620;-66
2023/08/15 09:59:22;;;;;;;13.63;13.13;;;28.00;99.90;;;;;;5089216;28;20246;-64
2023/08/15 10:01:51;;;;;;;14.15;13.65;;;28.00;99.90;;;;;;5090395;28;20211;-63
2023/08/15 10:04:20;;;;;;;14.18;13.68;;;28.10;99.90;;;;;;5090702;28;20202;-65
2023/08/15 10:06:48;;;;;;;11.45;11.05;;;28.20;99.90;;;;;;5091372;28;20292;-65
2023/08/15 10:09:16;;;;;;;14.98;14.48;;;28.20;99.90;;;;;;5087661;28;20318;-63
2023/08/15 10:11:46;;;;;;;13.80;13.30;;;28.20;99.90;;;;;;5092012;28;20280;-65
2023/08/15 10:14:14;;;;;;;12.05;11.52;;;28.20;99.90;;;;;;5091204;28;20763;-65
2023/08/15 10:16:43;;;;;;;11.45;11.05;;;28.20;99.90;;;;;;5091373;28;20225;-64
2023/08/15 10:19:14;;;;;;;14.07;13.57;;;28.20;99.90;;;;;;5090611;28;20746;-65
2023/08/15 10:21:48;;;;;;;13.68;13.18;;;28.40;99.90;;;;;;5091438;28;20222;-65
2023/08/15 10:24:15;;;;;;;12.50;12.10;;;28.50;99.90;;;;;;5089802;28;20318;-65
2023/08/15 10:26:43;;;;;;;11.30;10.90;;;28.60;99.90;;;;;;5089903;28;20198;-65
2023/08/15 10:29:10;;;;;;;13.73;13.23;;;28.70;99.90;;;;;;5089288;28;20238;-64
2023/08/15 10:31:38;;;;;;;14.75;14.25;;;28.70;99.90;;;;;;5096912;28;20206;-66
2023/08/15 10:34:09;;;;;;;12.85;12.38;;;28.70;99.90;;;;;;5090064;28;20595;-64
2023/08/15 10:36:36;;;;;;;11.30;10.90;;;28.80;99.90;;;;;;5096731;28;20266;-64
2023/08/15 10:39:06;;;;;;;11.90;11.48;;;28.90;99.90;;;;;;5094244;28;20570;-65
2023/08/15 10:41:35;;;;;;;12.45;12.05;;;28.90;99.90;;;;;;5091123;28;20627;-65
2023/08/15 10:44:05;;;;;;;11.18;10.77;;;29.10;99.90;;;;;;5096039;28;20210;-64
2023/08/15 10:46:34;;;;;;;15.15;14.55;;;29.10;99.90;;;;;;5090418;28;20206;-65
2023/08/15 10:49:05;;;;;;;11.70;11.30;;;29.10;99.90;;;;;;5090512;28;20233;-66
2023/08/15 10:51:35;;;;;;;12.00;11.60;;;29.40;99.90;;;;;;5090261;28;20194;-65
2023/08/15 10:54:03;;;;;;;13.30;12.80;;;29.70;99.90;;;;;;5090640;28;20226;-64
2023/08/15 10:56:31;;;;;;;13.75;13.25;;;30.10;99.90;;;;;;5090236;28;20297;-64
2023/08/15 10:58:59;;;;;;;14.80;14.30;;;30.40;99.90;;;;;;5089950;28;20605;-65
2023/08/15 11:01:27;;;;;;;13.45;12.95;;;30.60;99.90;;;;;;5089762;28;20208;-64
2023/08/15 11:03:55;;;;;;;13.82;13.32;;;30.70;99.90;;;;;;5089546;28;20202;-66
2023/08/15 11:06:23;;;;;;;11.88;11.48;;;30.80;99.90;;;;;;5089793;28;20351;-65
2023/08/15 11:08:52;;;;;;;12.25;11.85;;;30.80;99.90;;;;;;5089593;28;20742;-65
2023/08/15 11:11:19;;;;;;;13.13;12.60;;;30.70;99.90;;;;;;5090481;28;20609;-67
2023/08/15 11:13:48;;;;;;;11.57;11.18;;;30.70;99.90;;;;;;5093460;28;20206;-65
2023/08/15 11:16:18;;;;;;;14.35;13.85;;;30.70;99.90;;;;;;5093870;28;20579;-65
2023/08/15 11:18:46;;;;;;;11.15;10.75;;;30.80;99.90;;;;;;5093802;28;20230;-67
2023/08/15 11:21:15;;;;;;;11.23;10.82;;;30.80;99.90;;;;;;5093151;28;20206;-65
2023/08/15 11:23:42;;;;;;;9.43;9.07;;;30.70;99.90;;;;;;5092556;28;20217;-66
2023/08/15 11:26:12;;;;;;;10.75;10.35;;;30.70;99.90;;;;;;5094526;28;20216;-65
2023/08/15 11:28:39;;;;;;;11.80;11.40;;;30.70;99.90;;;;;;5094445;28;20332;-65
2023/08/15 11:31:09;;;;;;;9.30;9.00;;;30.80;99.90;;;;;;5094076;28;20633;-66
2023/08/15 11:33:36;;;;;;;10.80;10.40;;;30.80;99.90;;;;;;5094853;28;20206;-65
2023/08/15 11:36:05;;;;;;;10.75;10.35;;;31.00;99.90;;;;;;5094802;28;20230;-64
2023/08/15 11:38:32;;;;;;;11.50;11.10;;;31.00;99.90;;;;;;5094273;28;20222;-64
2023/08/15 11:41:01;;;;;;;9.85;9.50;;;31.10;99.90;;;;;;5094585;28;20579;-65
2023/08/15 11:43:30;;;;;;;9.18;8.88;;;31.00;99.90;;;;;;5094660;28;20707;-66
2023/08/15 11:45:56;;;;;;;11.88;11.48;;;31.00;99.90;;;;;;5094386;28;20195;-67
2023/08/15 11:48:24;;;;;;;9.98;9.57;;;31.10;99.90;;;;;;5093945;28;20675;-65
2023/08/15 11:50:51;;;;;;;10.25;9.85;;;31.20;99.90;;;;;;5093518;28;20190;-66
2023/08/15 11:53:19;;;;;;;10.23;9.82;;;31.10;99.90;;;;;;5093343;28;20210;-66
2023/08/15 11:55:47;;;;;;;9.88;9.57;;;31.10;99.90;;;;;;5093530;28;20226;-66
2023/08/15 11:58:25;;;;;;;10.32;9.93;;;31.30;99.90;;;;;;5093170;28;20223;-68
2023/08/15 12:00:54;;;;;;;10.68;10.27;;;31.40;99.90;;;;;;5092352;28;20264;-66
2023/08/15 12:03:21;;;;;;;13.27;12.77;;;31.60;99.90;;;;;;5092671;28;20202;-67
2023/08/15 12:05:49;;;;;;;10.60;10.20;;;31.50;99.90;;;;;;5092553;28;20213;-66
2023/08/15 12:08:16;;;;;;;10.73;10.32;;;31.20;99.90;;;;;;5092844;28;20234;-66
2023/08/15 12:10:45;;;;;;;11.15;10.75;;;31.20;99.90;;;;;;5092160;28;20214;-66
2023/08/15 12:13:12;;;;;;;11.40;11.00;;;31.20;99.90;;;;;;5092884;28;20293;-67
2023/08/15 12:15:39;;;;;;;10.38;9.98;;;31.20;99.90;;;;;;5092196;28;20316;-67
2023/08/15 12:18:07;;;;;;;10.93;10.52;;;31.10;99.90;;;;;;5092608;28;20317;-66
2023/08/15 12:20:34;;;;;;;23.95;22.80;;;31.10;99.90;;;;;;5090177;28;20211;-64
2023/08/15 12:23:01;;;;;;;10.85;10.45;;;31.30;99.90;;;;;;5092335;28;20243;-65
2023/08/15 12:25:28;;;;;;;14.32;13.63;;;31.20;99.90;;;;;;5092635;28;20289;-66
2023/08/15 12:27:55;;;;;;;10.60;10.20;;;31.30;99.90;;;;;;5092352;28;20224;-65
2023/08/15 12:30:22;;;;;;;10.38;9.98;;;31.30;99.90;;;;;;5091343;28;20214;-66